首页
METAR-TAF:

METAR-TAF

机场 :

克林顿 / Burns Flat, 奧克拉荷馬州, 美国

纬度: 35-21-24N, 经度: 099-12-13W, 海拔: 585米

当前天气观测

该预报发布于49分钟前的22:53 UTC
风速19节,风向,有时为24节阵风
温度 3°C
湿度 44%
气压 1017 hPa
能見度: 16.1公里
天空无云

METAR: KCSM 092253Z 35019G24KT 10SM CLR 03/M08 A3004 RMK AO2 PK WND 35026/2242 SLP173 T00331078

时间: 17:42 (23:42 UTC)

预报

该预报发布于11分钟前的23:31 UTC
预报有效从10日的 00点(UTC)到 10日的 24点(UTC)
风速18节,风向
能見度: 10公里
散云层高于10000英尺
阴天层高于20000英尺
从 10日的 0600点(UTC)
风速10节,风向北转东北
能見度: 10公里
阴天层高于12000英尺
从 10日的 1400点(UTC)
风速6节,风向西
能見度: 10公里
散云层高于10000英尺

TAF: KCSM 092331Z 1000/1024 36018KT P6SM SCT100 OVC200 FM100600 02010KT P6SM OVC120 FM101400 27006KT P6SM SCT100

超过4000个机场的气象观测和天气预报(METAR&TAF报告)。

可查询的气象台以黄色和红色小点在地图上表示。

将鼠标移到小点上方,可查看气象台名称。

然后点击查看天气观测和预报。

如需切换地图:点击带黑十字的绿色按钮放大地图;点击带横线的绿色按钮缩小地图;或者点击绿色箭头查看邻近地区的地图。


METAR-TAF: